sensor_id;sensor_type;location;lat;lon;timestamp;pressure;altitude;pressure_sealevel;temperature;humidity
66273;BME280;58450;52.150;4.466;2023-04-15T00:00:44;100824.69;;;9.80;100.00
66273;BME280;58450;52.150;4.466;2023-04-15T00:03:11;100828.38;;;9.79;100.00
66273;BME280;58450;52.150;4.466;2023-04-15T00:05:39;100821.34;;;9.78;100.00
66273;BME280;58450;52.150;4.466;2023-04-15T00:08:06;100825.88;;;9.77;100.00
66273;BME280;58450;52.150;4.466;2023-04-15T00:10:34;100825.22;;;9.75;100.00
66273;BME280;58450;52.150;4.466;2023-04-15T00:13:01;100821.72;;;9.74;100.00
66273;BME280;58450;52.150;4.466;2023-04-15T00:15:29;100825.41;;;9.73;100.00
66273;BME280;58450;52.150;4.466;2023-04-15T00:17:58;100834.84;;;9.69;100.00
66273;BME280;58450;52.150;4.466;2023-04-15T00:20:25;100839.94;;;9.64;100.00
66273;BME280;58450;52.150;4.466;2023-04-15T00:22:53;100830.41;;;9.61;100.00
66273;BME280;58450;52.150;4.466;2023-04-15T00:25:20;100832.59;;;9.58;100.00
66273;BME280;58450;52.150;4.466;2023-04-15T00:27:48;100837.66;;;9.53;100.00
66273;BME280;58450;52.150;4.466;2023-04-15T00:30:15;100833.66;;;9.49;100.00
66273;BME280;58450;52.150;4.466;2023-04-15T00:32:43;100835.41;;;9.41;100.00
66273;BME280;58450;52.150;4.466;2023-04-15T00:35:13;100834.28;;;9.36;100.00
66273;BME280;58450;52.150;4.466;2023-04-15T00:37:40;100841.19;;;9.30;100.00
66273;BME280;58450;52.150;4.466;2023-04-15T00:40:11;100843.41;;;9.26;100.00
66273;BME280;58450;52.150;4.466;2023-04-15T00:42:39;100848.47;;;9.21;100.00
66273;BME280;58450;52.150;4.466;2023-04-15T00:45:08;100848.19;;;9.16;100.00
66273;BME280;58450;52.150;4.466;2023-04-15T00:47:36;100845.53;;;9.08;100.00
66273;BME280;58450;52.150;4.466;2023-04-15T00:50:08;100846.91;;;9.04;100.00
66273;BME280;58450;52.150;4.466;2023-04-15T00:52:37;100839.03;;;9.02;100.00
66273;BME280;58450;52.150;4.466;2023-04-15T00:55:06;100844.94;;;8.97;100.00
66273;BME280;58450;52.150;4.466;2023-04-15T00:57:35;100853.34;;;8.94;100.00
66273;BME280;58450;52.150;4.466;2023-04-15T01:00:04;100843.81;;;8.92;100.00
66273;BME280;58450;52.150;4.466;2023-04-15T01:02:35;100840.63;;;8.88;100.00
66273;BME280;58450;52.150;4.466;2023-04-15T01:05:03;100848.00;;;8.86;100.00
66273;BME280;58450;52.150;4.466;2023-04-15T01:07:31;100849.22;;;8.83;100.00
66273;BME280;58450;52.150;4.466;2023-04-15T01:10:00;100845.88;;;8.81;100.00
66273;BME280;58450;52.150;4.466;2023-04-15T01:12:31;100859.28;;;8.81;100.00
66273;BME280;58450;52.150;4.466;2023-04-15T01:15:00;100849.75;;;8.79;100.00
66273;BME280;58450;52.150;4.466;2023-04-15T01:17:28;100855.28;;;8.77;100.00
66273;BME280;58450;52.150;4.466;2023-04-15T01:19:56;100856.28;;;8.76;100.00
66273;BME280;58450;52.150;4.466;2023-04-15T01:22:24;100857.97;;;8.77;100.00
66273;BME280;58450;52.150;4.466;2023-04-15T01:24:56;100856.28;;;8.76;100.00
66273;BME280;58450;52.150;4.466;2023-04-15T01:27:33;100851.94;;;8.75;100.00
66273;BME280;58450;52.150;4.466;2023-04-15T01:30:06;100850.25;;;8.74;100.00
66273;BME280;58450;52.150;4.466;2023-04-15T01:32:34;100849.13;;;8.68;100.00
66273;BME280;58450;52.150;4.466;2023-04-15T01:35:02;100848.28;;;8.68;100.00
66273;BME280;58450;52.150;4.466;2023-04-15T01:37:30;100850.28;;;8.66;100.00
66273;BME280;58450;52.150;4.466;2023-04-15T01:39:58;100846.59;;;8.67;100.00
66273;BME280;58450;52.150;4.466;2023-04-15T01:42:26;100854.84;;;8.65;100.00
66273;BME280;58450;52.150;4.466;2023-04-15T01:44:55;100846.94;;;8.64;100.00
66273;BME280;58450;52.150;4.466;2023-04-15T01:47:22;100856.00;;;8.63;100.00
66273;BME280;58450;52.150;4.466;2023-04-15T01:49:50;100851.66;;;8.62;100.00
66273;BME280;58450;52.150;4.466;2023-04-15T01:52:17;100855.69;;;8.57;100.00
66273;BME280;58450;52.150;4.466;2023-04-15T01:54:45;100857.72;;;8.55;100.00
66273;BME280;58450;52.150;4.466;2023-04-15T01:57:15;100863.06;;;8.55;100.00
66273;BME280;58450;52.150;4.466;2023-04-15T01:59:43;100861.59;;;8.53;100.00
66273;BME280;58450;52.150;4.466;2023-04-15T02:02:12;100861.06;;;8.49;100.00
66273;BME280;58450;52.150;4.466;2023-04-15T02:04:40;100863.06;;;8.47;100.00
66273;BME280;58450;52.150;4.466;2023-04-15T02:07:08;100865.75;;;8.47;100.00
66273;BME280;58450;52.150;4.466;2023-04-15T02:09:35;100861.56;;;8.45;100.00
66273;BME280;58450;52.150;4.466;2023-04-15T02:12:04;100862.59;;;8.43;100.00
66273;BME280;58450;52.150;4.466;2023-04-15T02:14:32;100868.28;;;8.40;100.00
66273;BME280;58450;52.150;4.466;2023-04-15T02:16:59;100871.16;;;8.39;100.00
66273;BME280;58450;52.150;4.466;2023-04-15T02:19:33;100859.59;;;8.38;100.00
66273;BME280;58450;52.150;4.466;2023-04-15T02:22:01;100864.94;;;8.38;100.00
66273;BME280;58450;52.150;4.466;2023-04-15T02:24:29;100871.50;;;8.36;100.00
66273;BME280;58450;52.150;4.466;2023-04-15T02:26:57;100874.19;;;8.36;100.00
66273;BME280;58450;52.150;4.466;2023-04-15T02:29:24;100880.38;;;8.36;100.00
66273;BME280;58450;52.150;4.466;2023-04-15T02:31:52;100875.00;;;8.36;100.00
66273;BME280;58450;52.150;4.466;2023-04-15T02:34:19;100882.72;;;8.39;100.00
66273;BME280;58450;52.150;4.466;2023-04-15T02:36:48;100878.53;;;8.37;100.00
66273;BME280;58450;52.150;4.466;2023-04-15T02:39:19;100889.09;;;8.38;100.00
66273;BME280;58450;52.150;4.466;2023-04-15T02:41:47;100889.94;;;8.39;100.00
66273;BME280;58450;52.150;4.466;2023-04-15T02:44:17;100893.78;;;8.36;100.00
66273;BME280;58450;52.150;4.466;2023-04-15T02:46:45;100889.59;;;8.34;100.00
66273;BME280;58450;52.150;4.466;2023-04-15T02:49:15;100890.97;;;8.30;100.00
66273;BME280;58450;52.150;4.466;2023-04-15T02:51:43;100896.66;;;8.26;100.00
66273;BME280;58450;52.150;4.466;2023-04-15T02:54:15;100904.03;;;8.24;100.00
66273;BME280;58450;52.150;4.466;2023-04-15T02:56:43;100902.69;;;8.20;100.00
66273;BME280;58450;52.150;4.466;2023-04-15T02:59:11;100905.72;;;8.17;100.00
66273;BME280;58450;52.150;4.466;2023-04-15T03:01:38;100909.75;;;8.13;100.00
66273;BME280;58450;52.150;4.466;2023-04-15T03:04:06;100903.88;;;8.09;100.00
66273;BME280;58450;52.150;4.466;2023-04-15T03:06:34;100902.38;;;8.07;100.00
66273;BME280;58450;52.150;4.466;2023-04-15T03:09:02;100910.41;;;8.07;100.00
66273;BME280;58450;52.150;4.466;2023-04-15T03:11:31;100903.06;;;8.01;100.00
66273;BME280;58450;52.150;4.466;2023-04-15T03:13:59;100904.41;;;7.96;100.00
66273;BME280;58450;52.150;4.466;2023-04-15T03:16:26;100917.13;;;7.94;100.00
66273;BME280;58450;52.150;4.466;2023-04-15T03:18:54;100912.78;;;7.93;100.00
66273;BME280;58450;52.150;4.466;2023-04-15T03:21:21;100918.66;;;7.89;100.00
66273;BME280;58450;52.150;4.466;2023-04-15T03:23:49;100918.97;;;7.86;100.00
66273;BME280;58450;52.150;4.466;2023-04-15T03:26:23;100924.66;;;7.82;100.00
66273;BME280;58450;52.150;4.466;2023-04-15T03:28:55;100924.16;;;7.79;100.00
66273;BME280;58450;52.150;4.466;2023-04-15T03:31:22;100926.50;;;7.74;100.00
66273;BME280;58450;52.150;4.466;2023-04-15T03:33:50;100921.47;;;7.71;100.00
66273;BME280;58450;52.150;4.466;2023-04-15T03:36:17;100928.16;;;7.66;100.00
66273;BME280;58450;52.150;4.466;2023-04-15T03:38:45;100919.44;;;7.64;100.00
66273;BME280;58450;52.150;4.466;2023-04-15T03:41:14;100924.81;;;7.64;100.00
66273;BME280;58450;52.150;4.466;2023-04-15T03:43:41;100931.84;;;7.65;100.00
66273;BME280;58450;52.150;4.466;2023-04-15T03:46:10;100932.03;;;7.64;100.00
66273;BME280;58450;52.150;4.466;2023-04-15T03:48:38;100932.16;;;7.62;100.00
66273;BME280;58450;52.150;4.466;2023-04-15T03:51:05;100939.19;;;7.63;100.00
66273;BME280;58450;52.150;4.466;2023-04-15T03:53:33;100944.75;;;7.62;100.00
66273;BME280;58450;52.150;4.466;2023-04-15T03:56:00;100953.59;;;7.62;100.00
66273;BME280;58450;52.150;4.466;2023-04-15T03:58:28;100958.94;;;7.62;100.00
66273;BME280;58450;52.150;4.466;2023-04-15T04:00:55;100959.94;;;7.61;100.00
66273;BME280;58450;52.150;4.466;2023-04-15T04:03:24;100951.25;;;7.59;100.00
66273;BME280;58450;52.150;4.466;2023-04-15T04:05:52;100959.47;;;7.58;100.00
66273;BME280;58450;52.150;4.466;2023-04-15T04:08:20;100963.97;;;7.57;100.00
66273;BME280;58450;52.150;4.466;2023-04-15T04:10:47;100966.81;;;7.56;100.00
66273;BME280;58450;52.150;4.466;2023-04-15T04:13:14;100972.19;;;7.56;100.00
66273;BME280;58450;52.150;4.466;2023-04-15T04:15:42;100981.22;;;7.54;100.00
66273;BME280;58450;52.150;4.466;2023-04-15T04:18:09;100979.53;;;7.53;100.00
66273;BME280;58450;52.150;4.466;2023-04-15T04:20:38;100984.41;;;7.50;100.00
66273;BME280;58450;52.150;4.466;2023-04-15T04:23:06;100988.91;;;7.49;100.00
66273;BME280;58450;52.150;4.466;2023-04-15T04:25:33;100985.53;;;7.47;100.00
66273;BME280;58450;52.150;4.466;2023-04-15T04:28:01;100982.88;;;7.47;100.00
66273;BME280;58450;52.150;4.466;2023-04-15T04:30:29;100993.56;;;7.47;100.00
66273;BME280;58450;52.150;4.466;2023-04-15T04:32:56;100993.44;;;7.49;100.00
66273;BME280;58450;52.150;4.466;2023-04-15T04:35:24;100990.91;;;7.47;100.00
66273;BME280;58450;52.150;4.466;2023-04-15T04:37:52;101003.28;;;7.48;100.00
66273;BME280;58450;52.150;4.466;2023-04-15T04:40:20;100994.44;;;7.48;100.00
66273;BME280;58450;52.150;4.466;2023-04-15T04:42:47;101006.28;;;7.45;100.00
66273;BME280;58450;52.150;4.466;2023-04-15T04:45:15;101010.81;;;7.45;100.00
66273;BME280;58450;52.150;4.466;2023-04-15T04:47:43;101014.50;;;7.44;100.00
66273;BME280;58450;52.150;4.466;2023-04-15T04:50:11;101017.84;;;7.46;100.00
66273;BME280;58450;52.150;4.466;2023-04-15T04:52:39;101020.53;;;7.46;100.00
66273;BME280;58450;52.150;4.466;2023-04-15T04:55:08;101025.88;;;7.46;100.00
66273;BME280;58450;52.150;4.466;2023-04-15T04:57:35;101032.06;;;7.46;100.00
66273;BME280;58450;52.150;4.466;2023-04-15T05:00:05;101032.91;;;7.47;100.00
66273;BME280;58450;52.150;4.466;2023-04-15T05:02:34;101030.38;;;7.45;100.00
66273;BME280;58450;52.150;4.466;2023-04-15T05:05:02;101037.28;;;7.48;100.00
66273;BME280;58450;52.150;4.466;2023-04-15T05:07:30;101044.44;;;7.47;100.00
66273;BME280;58450;52.150;4.466;2023-04-15T05:09:57;101050.66;;;7.48;100.00
66273;BME280;58450;52.150;4.466;2023-04-15T05:12:26;101048.81;;;7.48;100.00
66273;BME280;58450;52.150;4.466;2023-04-15T05:14:54;101054.84;;;7.50;100.00
66273;BME280;58450;52.150;4.466;2023-04-15T05:17:21;101056.19;;;7.54;100.00
66273;BME280;58450;52.150;4.466;2023-04-15T05:19:49;101064.91;;;7.57;100.00
66273;BME280;58450;52.150;4.466;2023-04-15T05:22:16;101074.31;;;7.61;100.00
66273;BME280;58450;52.150;4.466;2023-04-15T05:24:44;101083.00;;;7.63;100.00
66273;BME280;58450;52.150;4.466;2023-04-15T05:27:11;101087.88;;;7.67;100.00
66273;BME280;58450;52.150;4.466;2023-04-15T05:29:40;101090.91;;;7.73;100.00
66273;BME280;58450;52.150;4.466;2023-04-15T05:32:07;101098.63;;;7.76;100.00
66273;BME280;58450;52.150;4.466;2023-04-15T05:34:35;101102.50;;;7.81;100.00
66273;BME280;58450;52.150;4.466;2023-04-15T05:37:02;101102.69;;;7.88;100.00
66273;BME280;58450;52.150;4.466;2023-04-15T05:39:30;101111.75;;;7.95;100.00
66273;BME280;58450;52.150;4.466;2023-04-15T05:41:58;101117.13;;;8.04;100.00
66273;BME280;58450;52.150;4.466;2023-04-15T05:44:25;101125.03;;;8.13;100.00
66273;BME280;58450;52.150;4.466;2023-04-15T05:46:54;101128.56;;;8.22;100.00
66273;BME280;58450;52.150;4.466;2023-04-15T05:49:22;101128.75;;;8.29;100.00
66273;BME280;58450;52.150;4.466;2023-04-15T05:51:50;101136.13;;;8.35;100.00
66273;BME280;58450;52.150;4.466;2023-04-15T05:54:18;101143.56;;;8.50;100.00
66273;BME280;58450;52.150;4.466;2023-04-15T05:56:46;101146.94;;;8.68;100.00
66273;BME280;58450;52.150;4.466;2023-04-15T05:59:14;101156.31;;;8.89;100.00
66273;BME280;58450;52.150;4.466;2023-04-15T06:01:41;101170.25;;;9.09;100.00
66273;BME280;58450;52.150;4.466;2023-04-15T06:04:11;101169.22;;;9.27;100.00
66273;BME280;58450;52.150;4.466;2023-04-15T06:06:38;101170.16;;;9.42;100.00
66273;BME280;58450;52.150;4.466;2023-04-15T06:09:07;101174.00;;;9.65;100.00
66273;BME280;58450;52.150;4.466;2023-04-15T06:11:34;101186.50;;;9.89;100.00
66273;BME280;58450;52.150;4.466;2023-04-15T06:14:02;101191.97;;;10.04;100.00
66273;BME280;58450;52.150;4.466;2023-04-15T06:16:29;101197.28;;;10.20;100.00
66273;BME280;58450;52.150;4.466;2023-04-15T06:18:57;101200.59;;;10.31;100.00
66273;BME280;58450;52.150;4.466;2023-04-15T06:21:26;101209.41;;;10.48;100.00
66273;BME280;58450;52.150;4.466;2023-04-15T06:23:53;101212.16;;;10.63;100.00
66273;BME280;58450;52.150;4.466;2023-04-15T06:26:21;101217.75;;;10.85;100.00
66273;BME280;58450;52.150;4.466;2023-04-15T06:28:49;101230.72;;;11.04;100.00
66273;BME280;58450;52.150;4.466;2023-04-15T06:31:16;101229.28;;;11.17;100.00
66273;BME280;58450;52.150;4.466;2023-04-15T06:33:44;101227.19;;;11.27;100.00
66273;BME280;58450;52.150;4.466;2023-04-15T06:36:11;101234.16;;;11.36;100.00
66273;BME280;58450;52.150;4.466;2023-04-15T06:38:40;101230.09;;;11.41;100.00
66273;BME280;58450;52.150;4.466;2023-04-15T06:41:08;101238.34;;;11.39;100.00
66273;BME280;58450;52.150;4.466;2023-04-15T06:43:35;101244.38;;;11.41;100.00
66273;BME280;58450;52.150;4.466;2023-04-15T06:46:03;101243.38;;;11.42;100.00
66273;BME280;58450;52.150;4.466;2023-04-15T06:48:31;101250.25;;;11.45;100.00
66273;BME280;58450;52.150;4.466;2023-04-15T06:50:58;101252.59;;;11.48;100.00
66273;BME280;58450;52.150;4.466;2023-04-15T06:53:26;101252.41;;;11.49;100.00
66273;BME280;58450;52.150;4.466;2023-04-15T06:55:55;101254.06;;;11.50;100.00
66273;BME280;58450;52.150;4.466;2023-04-15T06:58:22;101254.28;;;11.64;100.00
66273;BME280;58450;52.150;4.466;2023-04-15T07:00:51;101260.16;;;11.82;100.00
66273;BME280;58450;52.150;4.466;2023-04-15T07:03:18;101262.78;;;11.91;100.00
66273;BME280;58450;52.150;4.466;2023-04-15T07:05:46;101271.53;;;12.08;100.00
66273;BME280;58450;52.150;4.466;2023-04-15T07:08:14;101266.97;;;12.08;100.00
66273;BME280;58450;52.150;4.466;2023-04-15T07:10:41;101268.47;;;12.11;100.00
66273;BME280;58450;52.150;4.466;2023-04-15T07:13:10;101270.03;;;12.05;100.00
66273;BME280;58450;52.150;4.466;2023-04-15T07:15:37;101270.97;;;12.27;100.00
66273;BME280;58450;52.150;4.466;2023-04-15T07:18:05;101273.91;;;12.48;100.00
66273;BME280;58450;52.150;4.466;2023-04-15T07:20:32;101277.69;;;12.68;100.00
66273;BME280;58450;52.150;4.466;2023-04-15T07:23:00;101282.53;;;12.95;100.00
66273;BME280;58450;52.150;4.466;2023-04-15T07:25:28;101288.19;;;13.43;100.00
66273;BME280;58450;52.150;4.466;2023-04-15T07:27:56;101296.34;;;14.07;100.00
66273;BME280;58450;52.150;4.466;2023-04-15T07:30:25;101299.31;;;14.68;100.00
66273;BME280;58450;52.150;4.466;2023-04-15T07:32:53;101304.88;;;15.21;100.00
66273;BME280;58450;52.150;4.466;2023-04-15T07:35:21;101317.00;;;15.66;97.70
66273;BME280;58450;52.150;4.466;2023-04-15T07:37:48;101317.63;;;16.02;93.93
66273;BME280;58450;52.150;4.466;2023-04-15T07:40:16;101325.13;;;16.00;92.79
66273;BME280;58450;52.150;4.466;2023-04-15T07:42:45;101327.63;;;16.08;91.17
66273;BME280;58450;52.150;4.466;2023-04-15T07:45:14;101335.69;;;16.42;90.27
66273;BME280;58450;52.150;4.466;2023-04-15T07:47:43;101330.25;;;16.42;89.35
66273;BME280;58450;52.150;4.466;2023-04-15T07:50:10;101337.53;;;16.48;87.02
66273;BME280;58450;52.150;4.466;2023-04-15T07:52:38;101339.03;;;16.44;86.87
66273;BME280;58450;52.150;4.466;2023-04-15T07:55:06;101356.75;;;16.53;86.53
66273;BME280;58450;52.150;4.466;2023-04-15T07:57:35;101346.28;;;16.63;85.62
66273;BME280;58450;52.150;4.466;2023-04-15T08:00:04;101358.03;;;16.44;84.15
66273;BME280;58450;52.150;4.466;2023-04-15T08:02:32;101361.22;;;16.34;85.01
66273;BME280;58450;52.150;4.466;2023-04-15T08:05:03;101361.94;;;16.61;84.25
66273;BME280;58450;52.150;4.466;2023-04-15T08:07:32;101359.66;;;16.58;84.16
66273;BME280;58450;52.150;4.466;2023-04-15T08:09:59;101369.63;;;16.71;84.37
66273;BME280;58450;52.150;4.466;2023-04-15T08:12:27;101364.94;;;16.92;83.38
66273;BME280;58450;52.150;4.466;2023-04-15T08:14:55;101378.38;;;17.25;82.45
66273;BME280;58450;52.150;4.466;2023-04-15T08:17:22;101384.63;;;17.65;79.81
66273;BME280;58450;52.150;4.466;2023-04-15T08:19:50;101383.38;;;17.28;77.63
66273;BME280;58450;52.150;4.466;2023-04-15T08:22:20;101384.03;;;17.56;76.54
66273;BME280;58450;52.150;4.466;2023-04-15T08:24:47;101395.09;;;17.86;75.22
66273;BME280;58450;52.150;4.466;2023-04-15T08:27:14;101387.63;;;18.07;74.35
66273;BME280;58450;52.150;4.466;2023-04-15T08:29:42;101398.91;;;18.29;73.31
66273;BME280;58450;52.150;4.466;2023-04-15T08:32:10;101400.75;;;18.36;71.66
66273;BME280;58450;52.150;4.466;2023-04-15T08:34:38;101405.81;;;18.32;71.05
66273;BME280;58450;52.150;4.466;2023-04-15T08:37:05;101411.28;;;18.69;71.59
66273;BME280;58450;52.150;4.466;2023-04-15T08:39:34;101415.00;;;18.94;71.12
66273;BME280;58450;52.150;4.466;2023-04-15T08:42:03;101422.31;;;18.93;69.42
66273;BME280;58450;52.150;4.466;2023-04-15T08:44:38;101421.50;;;18.93;69.17
66273;BME280;58450;52.150;4.466;2023-04-15T08:47:07;101430.66;;;18.80;69.42
66273;BME280;58450;52.150;4.466;2023-04-15T08:49:38;101422.84;;;18.46;67.94
66273;BME280;58450;52.150;4.466;2023-04-15T08:52:07;101436.66;;;18.51;68.27
66273;BME280;58450;52.150;4.466;2023-04-15T08:54:37;101441.13;;;18.83;69.17
66273;BME280;58450;52.150;4.466;2023-04-15T08:57:05;101447.81;;;19.05;68.42
66273;BME280;58450;52.150;4.466;2023-04-15T08:59:33;101454.38;;;18.79;66.31
66273;BME280;58450;52.150;4.466;2023-04-15T09:02:01;101452.94;;;18.95;66.17
66273;BME280;58450;52.150;4.466;2023-04-15T09:04:31;101448.63;;;18.69;65.12
66273;BME280;58450;52.150;4.466;2023-04-15T09:06:59;101456.56;;;18.08;66.82
66273;BME280;58450;52.150;4.466;2023-04-15T09:09:27;101460.19;;;18.20;65.21
66273;BME280;58450;52.150;4.466;2023-04-15T09:11:55;101465.03;;;18.43;65.22
66273;BME280;58450;52.150;4.466;2023-04-15T09:14:23;101461.09;;;18.76;65.98
66273;BME280;58450;52.150;4.466;2023-04-15T09:16:58;101466.66;;;18.88;65.51
66273;BME280;58450;52.150;4.466;2023-04-15T09:19:26;101466.41;;;18.90;65.45
66273;BME280;58450;52.150;4.466;2023-04-15T09:21:56;101471.78;;;19.15;63.99
66273;BME280;58450;52.150;4.466;2023-04-15T09:24:28;101482.84;;;19.39;64.29
66273;BME280;58450;52.150;4.466;2023-04-15T09:27:04;101488.69;;;19.43;62.43
66273;BME280;58450;52.150;4.466;2023-04-15T09:29:32;101491.59;;;19.60;62.83
66273;BME280;58450;52.150;4.466;2023-04-15T09:32:10;101494.91;;;19.62;60.65
66273;BME280;58450;52.150;4.466;2023-04-15T09:34:39;101496.31;;;19.95;61.21
66273;BME280;58450;52.150;4.466;2023-04-15T09:37:07;101496.38;;;20.07;61.42
66273;BME280;58450;52.150;4.466;2023-04-15T09:39:46;101500.75;;;20.08;60.52
66273;BME280;58450;52.150;4.466;2023-04-15T09:42:17;101515.97;;;20.16;60.07
66273;BME280;58450;52.150;4.466;2023-04-15T09:44:49;101512.66;;;20.49;59.49
66273;BME280;58450;52.150;4.466;2023-04-15T09:47:27;101518.66;;;19.92;56.96
66273;BME280;58450;52.150;4.466;2023-04-15T09:49:55;101522.34;;;18.99;56.24
66273;BME280;58450;52.150;4.466;2023-04-15T09:52:23;101524.66;;;18.77;56.57
66273;BME280;58450;52.150;4.466;2023-04-15T09:54:52;101521.13;;;18.51;57.61
66273;BME280;58450;52.150;4.466;2023-04-15T09:57:23;101533.13;;;18.69;56.82
66273;BME280;58450;52.150;4.466;2023-04-15T09:59:51;101529.13;;;18.71;56.76
66273;BME280;58450;52.150;4.466;2023-04-15T10:02:19;101532.56;;;19.23;57.70
66273;BME280;58450;52.150;4.466;2023-04-15T10:04:47;101543.03;;;18.88;55.18
66273;BME280;58450;52.150;4.466;2023-04-15T10:07:16;101535.22;;;18.48;54.10
66273;BME280;58450;52.150;4.466;2023-04-15T10:09:45;101542.31;;;18.93;55.34
66273;BME280;58450;52.150;4.466;2023-04-15T10:12:14;101542.22;;;19.25;55.91
66273;BME280;58450;52.150;4.466;2023-04-15T10:14:48;101543.16;;;19.80;55.76
66273;BME280;58450;52.150;4.466;2023-04-15T10:17:21;101551.56;;;19.48;54.49
66273;BME280;58450;52.150;4.466;2023-04-15T10:19:53;101546.97;;;19.48;55.61
66273;BME280;58450;52.150;4.466;2023-04-15T10:22:22;101546.69;;;19.69;55.97
66273;BME280;58450;52.150;4.466;2023-04-15T10:24:52;101549.38;;;19.87;55.28
66273;BME280;58450;52.150;4.466;2023-04-15T10:27:22;101560.47;;;19.74;56.35
66273;BME280;58450;52.150;4.466;2023-04-15T10:29:51;101550.22;;;20.18;54.04
66273;BME280;58450;52.150;4.466;2023-04-15T10:32:21;101566.41;;;20.56;53.79
66273;BME280;58450;52.150;4.466;2023-04-15T10:34:51;101557.50;;;20.60;53.08
66273;BME280;58450;52.150;4.466;2023-04-15T10:37:20;101557.53;;;20.96;53.59
66273;BME280;58450;52.150;4.466;2023-04-15T10:39:49;101552.97;;;21.02;52.75
66273;BME280;58450;52.150;4.466;2023-04-15T10:42:17;101557.63;;;21.01;52.77
66273;BME280;58450;52.150;4.466;2023-04-15T10:44:48;101563.22;;;20.94;52.29
66273;BME280;58450;52.150;4.466;2023-04-15T10:47:19;101566.78;;;21.07;53.07
66273;BME280;58450;52.150;4.466;2023-04-15T10:49:48;101554.34;;;21.28;53.63
66273;BME280;58450;52.150;4.466;2023-04-15T10:52:22;101559.41;;;20.72;51.50
66273;BME280;58450;52.150;4.466;2023-04-15T10:54:53;101567.03;;;20.70;51.29
66273;BME280;58450;52.150;4.466;2023-04-15T10:57:33;101564.28;;;20.93;51.54
66273;BME280;58450;52.150;4.466;2023-04-15T11:00:09;101570.78;;;21.28;51.30
66273;BME280;58450;52.150;4.466;2023-04-15T11:02:44;101568.19;;;21.21;51.08
66273;BME280;58450;52.150;4.466;2023-04-15T11:05:14;101575.66;;;21.26;51.27
66273;BME280;58450;52.150;4.466;2023-04-15T11:07:50;101582.59;;;21.69;50.83
66273;BME280;58450;52.150;4.466;2023-04-15T11:10:49;101584.19;;;21.53;48.40
66273;BME280;58450;52.150;4.466;2023-04-15T11:13:25;101588.31;;;21.68;50.01
66273;BME280;58450;52.150;4.466;2023-04-15T11:15:59;101593.09;;;22.19;50.35
66273;BME280;58450;52.150;4.466;2023-04-15T11:18:31;101599.31;;;21.44;48.14
66273;BME280;58450;52.150;4.466;2023-04-15T11:21:01;101586.75;;;20.48;51.40
66273;BME280;58450;52.150;4.466;2023-04-15T11:23:33;101593.19;;;20.89;52.55
66273;BME280;58450;52.150;4.466;2023-04-15T11:26:03;101600.41;;;20.60;51.77
66273;BME280;58450;52.150;4.466;2023-04-15T11:28:35;101611.63;;;21.30;50.21
66273;BME280;58450;52.150;4.466;2023-04-15T11:31:07;101606.66;;;20.91;50.50
66273;BME280;58450;52.150;4.466;2023-04-15T11:33:43;101616.94;;;20.65;49.04
66273;BME280;58450;52.150;4.466;2023-04-15T11:36:13;101621.28;;;20.96;50.71
66273;BME280;58450;52.150;4.466;2023-04-15T11:38:45;101625.06;;;19.31;55.44
66273;BME280;58450;52.150;4.466;2023-04-15T11:41:13;101626.53;;;16.27;64.79
66273;BME280;58450;52.150;4.466;2023-04-15T11:43:41;101628.22;;;16.88;67.79
66273;BME280;58450;52.150;4.466;2023-04-15T11:46:09;101633.47;;;16.43;68.24
66273;BME280;58450;52.150;4.466;2023-04-15T11:48:41;101644.63;;;15.92;70.65
66273;BME280;58450;52.150;4.466;2023-04-15T11:51:10;101636.44;;;15.86;72.72
66273;BME280;58450;52.150;4.466;2023-04-15T11:53:40;101638.25;;;16.34;74.50
66273;BME280;58450;52.150;4.466;2023-04-15T11:56:10;101645.16;;;16.43;72.43
66273;BME280;58450;52.150;4.466;2023-04-15T11:58:42;101638.50;;;16.59;73.38
66273;BME280;58450;52.150;4.466;2023-04-15T12:01:11;101654.44;;;16.00;72.32
66273;BME280;58450;52.150;4.466;2023-04-15T12:03:41;101658.13;;;16.48;70.88
66273;BME280;58450;52.150;4.466;2023-04-15T12:06:13;101654.34;;;16.42;71.96
66273;BME280;58450;52.150;4.466;2023-04-15T12:08:47;101657.53;;;17.20;71.46
66273;BME280;58450;52.150;4.466;2023-04-15T12:11:20;101654.19;;;17.18;70.81
66273;BME280;58450;52.150;4.466;2023-04-15T12:13:53;101668.16;;;17.41;67.16
66273;BME280;58450;52.150;4.466;2023-04-15T12:16:23;101669.94;;;18.59;66.18
66273;BME280;58450;52.150;4.466;2023-04-15T12:18:54;101677.84;;;19.43;63.06
66273;BME280;58450;52.150;4.466;2023-04-15T12:21:25;101679.53;;;20.31;60.46
66273;BME280;58450;52.150;4.466;2023-04-15T12:23:54;101679.56;;;19.75;61.99
66273;BME280;58450;52.150;4.466;2023-04-15T12:26:27;101690.84;;;20.46;62.84
66273;BME280;58450;52.150;4.466;2023-04-15T12:29:00;101696.34;;;19.41;63.18
66273;BME280;58450;52.150;4.466;2023-04-15T12:31:28;101693.44;;;18.21;65.54
66273;BME280;58450;52.150;4.466;2023-04-15T12:33:58;101706.66;;;18.88;65.70
66273;BME280;58450;52.150;4.466;2023-04-15T12:36:27;101710.25;;;18.50;66.05
66273;BME280;58450;52.150;4.466;2023-04-15T12:38:58;101714.31;;;18.73;66.20
66273;BME280;58450;52.150;4.466;2023-04-15T12:41:25;101716.41;;;18.71;65.84
66273;BME280;58450;52.150;4.466;2023-04-15T12:43:53;101711.22;;;18.63;64.80
66273;BME280;58450;52.150;4.466;2023-04-15T12:46:21;101726.16;;;18.53;64.86
66273;BME280;58450;52.150;4.466;2023-04-15T12:48:49;101732.38;;;18.67;65.15
66273;BME280;58450;52.150;4.466;2023-04-15T12:51:19;101727.81;;;19.18;65.41
66273;BME280;58450;52.150;4.466;2023-04-15T12:53:47;101734.66;;;19.28;63.54
66273;BME280;58450;52.150;4.466;2023-04-15T12:56:15;101732.72;;;19.35;62.89